Terminal Aerodrome Forecast
Issued by NWS

Home | Current Version | Previous Version | Text Only | Print | Product List | Glossary On
Versions: 1 2 3 4 5 6 7 8 9 10 11 12
000
FTUS44 KCRP 011100
TAFLRD
TAF
KLRD 011140Z 0112/0212 17005KT P6SM BKN018 BKN200
      TEMPO 0112/0115 SCT018 OVC100
     FM011500 VRB03KT P6SM VCSH BKN035 OVC100
     FM011800 11011KT P6SM VCTS BKN050CB
     FM020700 10007KT P6SM VCSH SCT040=

USA.gov is the U.S. government's official web portal to all federal, state and local government web resources and services.